DLH118 EKCH-EDDH
Flight info
| Callsign | DLH118 |
|---|---|
| Flight time | 0h 30m |
| Altitude | 24000 |
| Route | NEXEN2A NEXEN T503 MICOS/N0430F280 N850 BOGMU BOGMU3P |
| Aircraft | A319/M-VGDW/C |
Departure
| Time | 2026-04-26 17:44 |
|---|---|
| Airport | Copenhagen Kastrup Airport (EKCH) |
Arrival
| Time | 2026-04-26 18:14 |
|---|---|
| Airport | Hamburg Helmut Schmidt Airport (EDDH) |
| Time | Latitude | Longitude | Altitude | Speed | Heading |
|---|---|---|---|---|---|
| 2026-04-26 17:16 | 55.62672 | 12.64449 | 22 ft | 0 kts | 98° |
| 2026-04-26 17:31 | 55.62674 | 12.64429 | 21 ft | 3 kts | 91° |
| 2026-04-26 17:31 | 55.62672 | 12.64394 | 21 ft | 3 kts | 86° |
| 2026-04-26 17:31 | 55.62673 | 12.64361 | 25 ft | 3 kts | 92° |
| 2026-04-26 17:31 | 55.62671 | 12.64329 | 24 ft | 3 kts | 57° |
| 2026-04-26 17:32 | 55.62658 | 12.64305 | 27 ft | 3 kts | 27° |
| 2026-04-26 17:32 | 55.62640 | 12.64291 | 27 ft | 3 kts | 20° |
| 2026-04-26 17:32 | 55.62621 | 12.64277 | 29 ft | 3 kts | 33° |
| 2026-04-26 17:32 | 55.62606 | 12.64256 | 25 ft | 3 kts | 55° |
| 2026-04-26 17:33 | 55.62599 | 12.64227 | 26 ft | 3 kts | 91° |
| 2026-04-26 17:33 | 55.62602 | 12.64193 | 27 ft | 3 kts | 114° |
| 2026-04-26 17:33 | 55.62610 | 12.64168 | 25 ft | 1 kts | 124° |
| 2026-04-26 17:34 | 55.62626 | 12.64125 | 28 ft | 3 kts | 124° |
| 2026-04-26 17:34 | 55.62639 | 12.64092 | 25 ft | 1 kts | 124° |
| 2026-04-26 17:34 | 55.62640 | 12.64090 | 25 ft | 3 kts | 124° |
| 2026-04-26 17:37 | 55.62633 | 12.64112 | 26 ft | 5 kts | 119° |
| 2026-04-26 17:37 | 55.62606 | 12.64184 | 26 ft | 9 kts | 135° |
| 2026-04-26 17:38 | 55.62472 | 12.64332 | 19 ft | 16 kts | 120° |
| 2026-04-26 17:38 | 55.62435 | 12.64418 | 19 ft | 0 kts | 132° |
| 2026-04-26 17:38 | 55.62429 | 12.64429 | 21 ft | 3 kts | 136° |
| 2026-04-26 17:38 | 55.62392 | 12.64451 | 20 ft | 8 kts | 182° |
| 2026-04-26 17:39 | 55.62318 | 12.64418 | 20 ft | 14 kts | 199° |
| 2026-04-26 17:39 | 55.62218 | 12.64399 | 17 ft | 13 kts | 169° |
| 2026-04-26 17:39 | 55.62113 | 12.64440 | 18 ft | 18 kts | 175° |
| 2026-04-26 17:39 | 55.61981 | 12.64479 | 21 ft | 22 kts | 171° |
| 2026-04-26 17:40 | 55.61818 | 12.64534 | 21 ft | 25 kts | 168° |
| 2026-04-26 17:40 | 55.61699 | 12.64550 | 19 ft | 26 kts | 190° |
| 2026-04-26 17:40 | 55.61483 | 12.64364 | 19 ft | 26 kts | 217° |
| 2026-04-26 17:40 | 55.61329 | 12.64170 | 17 ft | 28 kts | 213° |
| 2026-04-26 17:41 | 55.61166 | 12.63978 | 18 ft | 28 kts | 214° |
| 2026-04-26 17:41 | 55.61027 | 12.63790 | 20 ft | 19 kts | 229° |
| 2026-04-26 17:41 | 55.60920 | 12.63689 | 21 ft | 18 kts | 211° |
| 2026-04-26 17:41 | 55.60806 | 12.63605 | 22 ft | 17 kts | 177° |
| 2026-04-26 17:42 | 55.60720 | 12.63726 | 24 ft | 16 kts | 127° |
| 2026-04-26 17:42 | 55.60700 | 12.63903 | 26 ft | 15 kts | 65° |
| 2026-04-26 17:42 | 55.60727 | 12.63954 | 26 ft | 0 kts | 39° |
| 2026-04-26 17:43 | 55.60730 | 12.63959 | 26 ft | 1 kts | 39° |
| 2026-04-26 17:43 | 55.60755 | 12.63995 | 27 ft | 20 kts | 40° |
| 2026-04-26 17:44 | 55.61092 | 12.64510 | 20 ft | 104 kts | 42° |
| 2026-04-26 17:44 | 55.61796 | 12.65607 | 126 ft | 152 kts | 39° |
| 2026-04-26 17:44 | 55.62606 | 12.66831 | 797 ft | 157 kts | 38° |
| 2026-04-26 17:44 | 55.63472 | 12.68095 | 1474 ft | 165 kts | 36° |
| 2026-04-26 17:45 | 55.64389 | 12.69445 | 2062 ft | 181 kts | 39° |
| 2026-04-26 17:45 | 55.65366 | 12.71060 | 2489 ft | 205 kts | 47° |
| 2026-04-26 17:45 | 55.65937 | 12.73521 | 2898 ft | 232 kts | 84° |
| 2026-04-26 17:45 | 55.65642 | 12.76467 | 3344 ft | 259 kts | 117° |
| 2026-04-26 17:46 | 55.64473 | 12.78926 | 4090 ft | 271 kts | 147° |
| 2026-04-26 17:46 | 55.62813 | 12.80642 | 5147 ft | 275 kts | 154° |
| 2026-04-26 17:46 | 55.61108 | 12.82177 | 6165 ft | 281 kts | 155° |
| 2026-04-26 17:46 | 55.59332 | 12.83736 | 7135 ft | 288 kts | 155° |
| 2026-04-26 17:47 | 55.57429 | 12.84905 | 8023 ft | 293 kts | 175° |
| 2026-04-26 17:47 | 55.56058 | 12.84933 | 8626 ft | 293 kts | 192° |
| 2026-04-26 17:47 | 55.53619 | 12.83099 | 9856 ft | 288 kts | 224° |
| 2026-04-26 17:47 | 55.52092 | 12.80743 | 10601 ft | 299 kts | 227° |
| 2026-04-26 17:48 | 55.50477 | 12.78197 | 10959 ft | 323 kts | 227° |
| 2026-04-26 17:48 | 55.48751 | 12.75493 | 11527 ft | 337 kts | 227° |
| 2026-04-26 17:48 | 55.46972 | 12.72740 | 12332 ft | 343 kts | 226° |
| 2026-04-26 17:48 | 55.45186 | 12.70001 | 13172 ft | 347 kts | 226° |
| 2026-04-26 17:49 | 55.43352 | 12.67204 | 14015 ft | 351 kts | 227° |
| 2026-04-26 17:49 | 55.41497 | 12.64377 | 14759 ft | 354 kts | 227° |
| 2026-04-26 17:49 | 55.39624 | 12.61519 | 15487 ft | 358 kts | 227° |
| 2026-04-26 17:49 | 55.37735 | 12.58629 | 16219 ft | 362 kts | 227° |
| 2026-04-26 17:50 | 55.35828 | 12.55709 | 16936 ft | 365 kts | 227° |
| 2026-04-26 17:50 | 55.33900 | 12.52761 | 17660 ft | 369 kts | 227° |
| 2026-04-26 17:50 | 55.31953 | 12.49783 | 18383 ft | 373 kts | 227° |
| 2026-04-26 17:50 | 55.29980 | 12.46772 | 19036 ft | 377 kts | 227° |
| 2026-04-26 17:51 | 55.27995 | 12.43757 | 19657 ft | 380 kts | 226° |
| 2026-04-26 17:51 | 55.25986 | 12.40719 | 20293 ft | 383 kts | 226° |
| 2026-04-26 17:51 | 55.23957 | 12.37651 | 20918 ft | 386 kts | 227° |
| 2026-04-26 17:51 | 55.21917 | 12.34564 | 21561 ft | 389 kts | 227° |
| 2026-04-26 17:52 | 55.19861 | 12.31452 | 22206 ft | 392 kts | 227° |
| 2026-04-26 17:52 | 55.17817 | 12.28359 | 22804 ft | 395 kts | 227° |
| 2026-04-26 17:52 | 55.15728 | 12.25203 | 23382 ft | 398 kts | 226° |
| 2026-04-26 17:52 | 55.13621 | 12.22026 | 23941 ft | 401 kts | 226° |
| 2026-04-26 17:53 | 55.11499 | 12.18831 | 24209 ft | 403 kts | 226° |
| 2026-04-26 17:53 | 55.09374 | 12.15644 | 24282 ft | 401 kts | 226° |
| 2026-04-26 17:53 | 55.07257 | 12.12478 | 24293 ft | 400 kts | 226° |
| 2026-04-26 17:54 | 55.03012 | 12.06141 | 24291 ft | 402 kts | 226° |
| 2026-04-26 17:54 | 55.00883 | 12.02972 | 24290 ft | 402 kts | 226° |
| 2026-04-26 17:54 | 54.98754 | 11.99804 | 24291 ft | 403 kts | 226° |
| 2026-04-26 17:54 | 54.96625 | 11.96637 | 24290 ft | 402 kts | 226° |
| 2026-04-26 17:55 | 54.94496 | 11.93473 | 24290 ft | 402 kts | 226° |
| 2026-04-26 17:55 | 54.92367 | 11.90315 | 24281 ft | 402 kts | 226° |
| 2026-04-26 17:55 | 54.90239 | 11.87161 | 24285 ft | 402 kts | 226° |
| 2026-04-26 17:55 | 54.88110 | 11.84010 | 24286 ft | 402 kts | 226° |
| 2026-04-26 17:56 | 54.85982 | 11.80862 | 24286 ft | 402 kts | 226° |
| 2026-04-26 17:56 | 54.81725 | 11.74584 | 24285 ft | 402 kts | 226° |
| 2026-04-26 17:57 | 54.77466 | 11.68317 | 24284 ft | 402 kts | 226° |
| 2026-04-26 17:57 | 54.75341 | 11.65194 | 24283 ft | 402 kts | 226° |
| 2026-04-26 17:57 | 54.73207 | 11.62071 | 24282 ft | 402 kts | 226° |
| 2026-04-26 17:57 | 54.71101 | 11.58994 | 24282 ft | 402 kts | 226° |
| 2026-04-26 17:58 | 54.64698 | 11.49661 | 24276 ft | 401 kts | 226° |
| 2026-04-26 17:59 | 54.60440 | 11.43474 | 24023 ft | 396 kts | 226° |
| 2026-04-26 17:59 | 54.58334 | 11.40427 | 23772 ft | 394 kts | 226° |
| 2026-04-26 17:59 | 54.56238 | 11.37395 | 23490 ft | 392 kts | 226° |
| 2026-04-26 17:59 | 54.54152 | 11.34378 | 23277 ft | 391 kts | 225° |
| 2026-04-26 18:00 | 54.52070 | 11.31368 | 23285 ft | 391 kts | 225° |
| 2026-04-26 18:00 | 54.49984 | 11.28351 | 23294 ft | 392 kts | 225° |
| 2026-04-26 18:00 | 54.47900 | 11.25338 | 23275 ft | 392 kts | 225° |
| 2026-04-26 18:00 | 54.45813 | 11.22332 | 23299 ft | 391 kts | 225° |
| 2026-04-26 18:01 | 54.43723 | 11.19337 | 23296 ft | 391 kts | 225° |
| 2026-04-26 18:01 | 54.41633 | 11.16347 | 23297 ft | 391 kts | 225° |
| 2026-04-26 18:01 | 54.39543 | 11.13357 | 23293 ft | 391 kts | 225° |
| 2026-04-26 18:01 | 54.37470 | 11.10414 | 22962 ft | 391 kts | 224° |
| 2026-04-26 18:02 | 54.35339 | 11.07482 | 22320 ft | 393 kts | 223° |
| 2026-04-26 18:02 | 54.33887 | 11.05530 | 21961 ft | 392 kts | 223° |
| 2026-04-26 18:02 | 54.31047 | 11.01765 | 21273 ft | 388 kts | 223° |
| 2026-04-26 18:02 | 54.28911 | 10.98944 | 20765 ft | 386 kts | 223° |
| 2026-04-26 18:03 | 54.26795 | 10.96148 | 20265 ft | 383 kts | 223° |
| 2026-04-26 18:03 | 54.24698 | 10.93367 | 19741 ft | 380 kts | 222° |
| 2026-04-26 18:03 | 54.22619 | 10.90605 | 19268 ft | 377 kts | 222° |
| 2026-04-26 18:03 | 54.20555 | 10.87861 | 18783 ft | 374 kts | 222° |
| 2026-04-26 18:04 | 54.18509 | 10.85138 | 18272 ft | 371 kts | 222° |
| 2026-04-26 18:04 | 54.16480 | 10.82440 | 17734 ft | 368 kts | 222° |
| 2026-04-26 18:04 | 54.14464 | 10.79766 | 17205 ft | 366 kts | 222° |
| 2026-04-26 18:05 | 54.10472 | 10.74476 | 16172 ft | 361 kts | 222° |
| 2026-04-26 18:05 | 54.08520 | 10.71893 | 15683 ft | 359 kts | 222° |
| 2026-04-26 18:05 | 54.06551 | 10.69298 | 15181 ft | 357 kts | 222° |
| 2026-04-26 18:05 | 54.04594 | 10.66720 | 14695 ft | 355 kts | 222° |
| 2026-04-26 18:06 | 54.02647 | 10.64158 | 14209 ft | 353 kts | 222° |
| 2026-04-26 18:06 | 54.00711 | 10.61610 | 13659 ft | 351 kts | 222° |
| 2026-04-26 18:06 | 53.98780 | 10.59068 | 12982 ft | 350 kts | 222° |
| 2026-04-26 18:06 | 53.96875 | 10.56570 | 12278 ft | 342 kts | 221° |
| 2026-04-26 18:07 | 53.95010 | 10.54131 | 11600 ft | 335 kts | 221° |
| 2026-04-26 18:07 | 53.93181 | 10.51741 | 10923 ft | 329 kts | 221° |
| 2026-04-26 18:07 | 53.91382 | 10.49396 | 10264 ft | 323 kts | 221° |
| 2026-04-26 18:07 | 53.90206 | 10.47862 | 9801 ft | 320 kts | 221° |
| 2026-04-26 18:08 | 53.87872 | 10.44819 | 8849 ft | 313 kts | 221° |
| 2026-04-26 18:08 | 53.86157 | 10.42587 | 8152 ft | 307 kts | 221° |
| 2026-04-26 18:08 | 53.84478 | 10.40406 | 7496 ft | 302 kts | 220° |
| 2026-04-26 18:08 | 53.82841 | 10.38281 | 6946 ft | 292 kts | 220° |
| 2026-04-26 18:09 | 53.81312 | 10.36113 | 6158 ft | 289 kts | 228° |
| 2026-04-26 18:09 | 53.80000 | 10.33557 | 5366 ft | 285 kts | 233° |
| 2026-04-26 18:09 | 53.78792 | 10.30980 | 4840 ft | 274 kts | 232° |
| 2026-04-26 18:09 | 53.77623 | 10.28556 | 4452 ft | 258 kts | 231° |
| 2026-04-26 18:10 | 53.76511 | 10.26282 | 4103 ft | 243 kts | 231° |
| 2026-04-26 18:10 | 53.75462 | 10.24136 | 3779 ft | 229 kts | 231° |
| 2026-04-26 18:10 | 53.74473 | 10.22112 | 3475 ft | 218 kts | 231° |
| 2026-04-26 18:10 | 53.73532 | 10.20188 | 3180 ft | 208 kts | 231° |
| 2026-04-26 18:11 | 53.72631 | 10.18347 | 2897 ft | 200 kts | 231° |
| 2026-04-26 18:11 | 53.71760 | 10.16568 | 2618 ft | 194 kts | 231° |
| 2026-04-26 18:11 | 53.70914 | 10.14843 | 2400 ft | 186 kts | 232° |
| 2026-04-26 18:11 | 53.70106 | 10.13196 | 2117 ft | 178 kts | 233° |
| 2026-04-26 18:12 | 53.69328 | 10.11612 | 1871 ft | 174 kts | 232° |
| 2026-04-26 18:12 | 53.68577 | 10.10083 | 1633 ft | 165 kts | 234° |
| 2026-04-26 18:12 | 53.67870 | 10.08645 | 1416 ft | 151 kts | 236° |
| 2026-04-26 18:12 | 53.67223 | 10.07331 | 1223 ft | 144 kts | 235° |
| 2026-04-26 18:13 | 53.66591 | 10.06042 | 1020 ft | 144 kts | 235° |
| 2026-04-26 18:13 | 53.65957 | 10.04746 | 830 ft | 142 kts | 236° |
| 2026-04-26 18:13 | 53.65325 | 10.03440 | 644 ft | 142 kts | 237° |
| 2026-04-26 18:13 | 53.64907 | 10.02598 | 496 ft | 142 kts | 233° |
| 2026-04-26 18:14 | 53.64077 | 10.00945 | 242 ft | 135 kts | 233° |
| 2026-04-26 18:14 | 53.63483 | 9.99729 | 63 ft | 132 kts | 236° |
| 2026-04-26 18:14 | 53.62982 | 9.98706 | 49 ft | 92 kts | 230° |
| 2026-04-26 18:14 | 53.62686 | 9.98100 | 50 ft | 42 kts | 230° |
| 2026-04-26 18:15 | 53.62520 | 9.97809 | 47 ft | 25 kts | 212° |
| 2026-04-26 18:15 | 53.62433 | 9.97946 | 50 ft | 19 kts | 85° |
| 2026-04-26 18:15 | 53.62491 | 9.98140 | 50 ft | 19 kts | 58° |
| 2026-04-26 18:15 | 53.62576 | 9.98315 | 51 ft | 20 kts | 49° |
| 2026-04-26 18:16 | 53.62662 | 9.98503 | 51 ft | 21 kts | 51° |
| 2026-04-26 18:16 | 53.62857 | 9.98892 | 50 ft | 23 kts | 49° |
| 2026-04-26 18:16 | 53.62960 | 9.99102 | 50 ft | 24 kts | 51° |
| 2026-04-26 18:17 | 53.63067 | 9.99321 | 50 ft | 25 kts | 52° |
| 2026-04-26 18:17 | 53.63144 | 9.99511 | 50 ft | 20 kts | 54° |
| 2026-04-26 18:17 | 53.63201 | 9.99626 | 50 ft | 9 kts | 49° |
| 2026-04-26 18:17 | 53.63228 | 9.99680 | 50 ft | 4 kts | 49° |
| 2026-04-26 18:18 | 53.63259 | 9.99735 | 50 ft | 9 kts | 43° |
| 2026-04-26 18:18 | 53.63318 | 9.99843 | 50 ft | 16 kts | 51° |
| 2026-04-26 18:18 | 53.63394 | 9.99999 | 51 ft | 15 kts | 50° |
| 2026-04-26 18:18 | 53.63427 | 10.00112 | 51 ft | 6 kts | 98° |
| 2026-04-26 18:19 | 53.63411 | 10.00187 | 49 ft | 7 kts | 109° |
| 2026-04-26 18:19 | 53.63411 | 10.00272 | 51 ft | 9 kts | 84° |
| 2026-04-26 18:19 | 53.63415 | 10.00322 | 51 ft | 1 kts | 85° |
| 2026-04-26 18:19 | 53.63415 | 10.00327 | 51 ft | 0 kts | 85° |
| 2026-04-26 18:20 | 53.63415 | 10.00337 | 51 ft | 2 kts | 85° |
| 2026-04-26 18:20 | 53.63415 | 10.00341 | 51 ft | 0 kts | 85° |